sensor_id;sensor_type;location;lat;lon;timestamp;pressure;altitude;pressure_sealevel;temperature;humidity
25658;BME280;13517;59.320;18.042;2023-07-13T00:01:25;99993.94;;;14.88;100.00
25658;BME280;13517;59.320;18.042;2023-07-13T00:03:51;100003.41;;;14.93;100.00
25658;BME280;13517;59.320;18.042;2023-07-13T00:06:17;99970.81;;;14.74;100.00
25658;BME280;13517;59.320;18.042;2023-07-13T00:08:42;100019.16;;;14.90;100.00
25658;BME280;13517;59.320;18.042;2023-07-13T00:11:08;100008.88;;;14.83;100.00
25658;BME280;13517;59.320;18.042;2023-07-13T00:13:35;100032.88;;;14.98;100.00
25658;BME280;13517;59.320;18.042;2023-07-13T00:16:03;99967.63;;;14.58;100.00
25658;BME280;13517;59.320;18.042;2023-07-13T00:18:29;100000.72;;;14.74;100.00
25658;BME280;13517;59.320;18.042;2023-07-13T00:20:55;100007.25;;;14.71;100.00
25658;BME280;13517;59.320;18.042;2023-07-13T00:23:22;100042.91;;;14.88;100.00
25658;BME280;13517;59.320;18.042;2023-07-13T00:25:48;100021.56;;;14.73;100.00
25658;BME280;13517;59.320;18.042;2023-07-13T00:28:15;100001.97;;;14.69;100.00
25658;BME280;13517;59.320;18.042;2023-07-13T00:30:41;100001.25;;;14.57;100.00
25658;BME280;13517;59.320;18.042;2023-07-13T00:33:06;100031.19;;;14.77;100.00
25658;BME280;13517;59.320;18.042;2023-07-13T00:35:32;99974.25;;;14.46;100.00
25658;BME280;13517;59.320;18.042;2023-07-13T00:37:58;100024.03;;;14.76;100.00
25658;BME280;13517;59.320;18.042;2023-07-13T00:40:24;99996.81;;;14.56;100.00
25658;BME280;13517;59.320;18.042;2023-07-13T00:42:52;99980.53;;;14.47;100.00
25658;BME280;13517;59.320;18.042;2023-07-13T00:47:43;99988.25;;;14.51;100.00
25658;BME280;13517;59.320;18.042;2023-07-13T00:50:12;99991.69;;;14.53;100.00
25658;BME280;13517;59.320;18.042;2023-07-13T00:52:41;100026.63;;;14.78;100.00
25658;BME280;13517;59.320;18.042;2023-07-13T00:55:09;100006.00;;;14.55;100.00
25658;BME280;13517;59.320;18.042;2023-07-13T00:57:36;100013.97;;;14.67;100.00
25658;BME280;13517;59.320;18.042;2023-07-13T01:00:05;100027.91;;;14.74;100.00
25658;BME280;13517;59.320;18.042;2023-07-13T01:02:32;100021.72;;;14.71;100.00
25658;BME280;13517;59.320;18.042;2023-07-13T01:04:58;99995.38;;;14.52;100.00
25658;BME280;13517;59.320;18.042;2023-07-13T01:07:24;100043.91;;;14.77;100.00
25658;BME280;13517;59.320;18.042;2023-07-13T01:09:50;100001.13;;;14.59;100.00
25658;BME280;13517;59.320;18.042;2023-07-13T01:12:15;99983.69;;;14.52;100.00
25658;BME280;13517;59.320;18.042;2023-07-13T01:14:41;99963.06;;;14.49;100.00
25658;BME280;13517;59.320;18.042;2023-07-13T01:17:09;100041.31;;;14.95;100.00
25658;BME280;13517;59.320;18.042;2023-07-13T01:19:41;100010.88;;;14.81;100.00
25658;BME280;13517;59.320;18.042;2023-07-13T01:22:13;99993.44;;;14.74;100.00
25658;BME280;13517;59.320;18.042;2023-07-13T01:24:41;100030.31;;;14.96;100.00
25658;BME280;13517;59.320;18.042;2023-07-13T01:27:09;100045.91;;;15.04;100.00
25658;BME280;13517;59.320;18.042;2023-07-13T01:29:36;100042.31;;;15.04;100.00
25658;BME280;13517;59.320;18.042;2023-07-13T01:32:08;100003.31;;;14.75;100.00
25658;BME280;13517;59.320;18.042;2023-07-13T01:34:35;100042.44;;;15.02;100.00
25658;BME280;13517;59.320;18.042;2023-07-13T01:37:00;100035.19;;;14.93;100.00
25658;BME280;13517;59.320;18.042;2023-07-13T01:39:25;100050.34;;;15.05;100.00
25658;BME280;13517;59.320;18.042;2023-07-13T01:41:51;99999.00;;;14.82;100.00
25658;BME280;13517;59.320;18.042;2023-07-13T01:44:16;100059.19;;;15.07;100.00
25658;BME280;13517;59.320;18.042;2023-07-13T01:46:42;100012.59;;;14.82;100.00
25658;BME280;13517;59.320;18.042;2023-07-13T01:49:07;100055.91;;;15.04;100.00
25658;BME280;13517;59.320;18.042;2023-07-13T01:51:32;100056.06;;;15.02;100.00
25658;BME280;13517;59.320;18.042;2023-07-13T01:53:58;100053.63;;;14.99;100.00
25658;BME280;13517;59.320;18.042;2023-07-13T01:56:23;100060.94;;;14.98;100.00
25658;BME280;13517;59.320;18.042;2023-07-13T01:58:49;100011.13;;;14.68;100.00
25658;BME280;13517;59.320;18.042;2023-07-13T02:01:14;100024.28;;;14.73;100.00
25658;BME280;13517;59.320;18.042;2023-07-13T02:03:40;100066.38;;;14.98;100.00
25658;BME280;13517;59.320;18.042;2023-07-13T02:06:05;100028.88;;;14.73;100.00
25658;BME280;13517;59.320;18.042;2023-07-13T02:08:33;100051.50;;;14.83;100.00
25658;BME280;13517;59.320;18.042;2023-07-13T02:10:58;100075.25;;;14.91;100.00
25658;BME280;13517;59.320;18.042;2023-07-13T02:13:24;100047.19;;;14.80;100.00
25658;BME280;13517;59.320;18.042;2023-07-13T02:15:51;100017.69;;;14.66;100.00
25658;BME280;13517;59.320;18.042;2023-07-13T02:18:16;100023.00;;;14.67;100.00
25658;BME280;13517;59.320;18.042;2023-07-13T02:20:42;100007.69;;;14.56;100.00
25658;BME280;13517;59.320;18.042;2023-07-13T02:23:08;100050.34;;;14.76;100.00
25658;BME280;13517;59.320;18.042;2023-07-13T02:25:33;100033.88;;;14.67;100.00
25658;BME280;13517;59.320;18.042;2023-07-13T02:27:58;100028.44;;;14.67;100.00
25658;BME280;13517;59.320;18.042;2023-07-13T02:30:24;99963.38;;;14.26;100.00
25658;BME280;13517;59.320;18.042;2023-07-13T02:32:50;100057.66;;;14.75;100.00
25658;BME280;13517;59.320;18.042;2023-07-13T02:35:15;100051.06;;;14.68;100.00
25658;BME280;13517;59.320;18.042;2023-07-13T02:37:41;100012.28;;;14.46;100.00
25658;BME280;13517;59.320;18.042;2023-07-13T02:40:07;100023.16;;;14.46;100.00
25658;BME280;13517;59.320;18.042;2023-07-13T02:42:34;100037.47;;;14.58;100.00
25658;BME280;13517;59.320;18.042;2023-07-13T02:44:59;100031.47;;;14.54;100.00
25658;BME280;13517;59.320;18.042;2023-07-13T02:47:25;99967.66;;;14.19;100.00
25658;BME280;13517;59.320;18.042;2023-07-13T02:49:51;100075.56;;;14.78;100.00
25658;BME280;13517;59.320;18.042;2023-07-13T02:52:17;100063.50;;;14.80;100.00
25658;BME280;13517;59.320;18.042;2023-07-13T02:54:42;100030.72;;;14.62;100.00
25658;BME280;13517;59.320;18.042;2023-07-13T02:57:08;100037.78;;;14.75;100.00
25658;BME280;13517;59.320;18.042;2023-07-13T02:59:33;100013.72;;;14.70;100.00
25658;BME280;13517;59.320;18.042;2023-07-13T03:02:01;100075.53;;;15.07;100.00
25658;BME280;13517;59.320;18.042;2023-07-13T03:04:26;100044.34;;;14.92;100.00
25658;BME280;13517;59.320;18.042;2023-07-13T03:06:52;100077.22;;;15.08;100.00
25658;BME280;13517;59.320;18.042;2023-07-13T03:09:17;100039.47;;;14.86;100.00
25658;BME280;13517;59.320;18.042;2023-07-13T03:11:43;100087.53;;;15.15;100.00
25658;BME280;13517;59.320;18.042;2023-07-13T03:14:08;100069.94;;;15.09;100.00
25658;BME280;13517;59.320;18.042;2023-07-13T03:16:33;100054.19;;;15.22;100.00
25658;BME280;13517;59.320;18.042;2023-07-13T03:18:59;100040.56;;;15.32;100.00
25658;BME280;13517;59.320;18.042;2023-07-13T03:21:24;100084.53;;;15.65;100.00
25658;BME280;13517;59.320;18.042;2023-07-13T03:23:50;100066.69;;;15.53;100.00
25658;BME280;13517;59.320;18.042;2023-07-13T03:26:18;100061.97;;;15.45;100.00
25658;BME280;13517;59.320;18.042;2023-07-13T03:28:45;100097.19;;;15.66;100.00
25658;BME280;13517;59.320;18.042;2023-07-13T03:31:13;100096.88;;;15.70;100.00
25658;BME280;13517;59.320;18.042;2023-07-13T03:33:39;100100.56;;;15.78;100.00
25658;BME280;13517;59.320;18.042;2023-07-13T03:36:06;100105.84;;;15.80;100.00
25658;BME280;13517;59.320;18.042;2023-07-13T03:38:32;100108.44;;;15.82;100.00
25658;BME280;13517;59.320;18.042;2023-07-13T03:40:58;100105.16;;;15.78;100.00
25658;BME280;13517;59.320;18.042;2023-07-13T03:43:23;100072.13;;;15.63;100.00
25658;BME280;13517;59.320;18.042;2023-07-13T03:45:49;100075.41;;;15.66;100.00
25658;BME280;13517;59.320;18.042;2023-07-13T03:48:15;100104.72;;;15.73;100.00
25658;BME280;13517;59.320;18.042;2023-07-13T03:50:40;100071.72;;;15.48;100.00
25658;BME280;13517;59.320;18.042;2023-07-13T03:53:06;100104.72;;;15.73;100.00
25658;BME280;13517;59.320;18.042;2023-07-13T03:55:31;100061.13;;;15.45;100.00
25658;BME280;13517;59.320;18.042;2023-07-13T03:58:27;100083.44;;;15.58;100.00
25658;BME280;13517;59.320;18.042;2023-07-13T04:00:54;100089.81;;;15.77;100.00
25658;BME280;13517;59.320;18.042;2023-07-13T04:03:20;100082.28;;;15.61;100.00
25658;BME280;13517;59.320;18.042;2023-07-13T04:05:45;100058.81;;;15.50;100.00
25658;BME280;13517;59.320;18.042;2023-07-13T04:08:11;100056.22;;;15.48;100.00
25658;BME280;13517;59.320;18.042;2023-07-13T04:10:37;100012.78;;;15.29;100.00
25658;BME280;13517;59.320;18.042;2023-07-13T04:13:04;100107.41;;;15.92;100.00
25658;BME280;13517;59.320;18.042;2023-07-13T04:15:30;100124.72;;;16.01;100.00
25658;BME280;13517;59.320;18.042;2023-07-13T04:17:56;100130.13;;;16.11;100.00
25658;BME280;13517;59.320;18.042;2023-07-13T04:20:22;100121.91;;;16.21;100.00
25658;BME280;13517;59.320;18.042;2023-07-13T04:22:47;100085.63;;;15.92;100.00
25658;BME280;13517;59.320;18.042;2023-07-13T04:25:13;100120.41;;;16.09;100.00
25658;BME280;13517;59.320;18.042;2023-07-13T04:27:38;100090.19;;;16.02;100.00
25658;BME280;13517;59.320;18.042;2023-07-13T04:30:06;100087.16;;;16.05;100.00
25658;BME280;13517;59.320;18.042;2023-07-13T04:32:31;100103.41;;;16.25;100.00
25658;BME280;13517;59.320;18.042;2023-07-13T04:34:58;100108.38;;;16.29;100.00
25658;BME280;13517;59.320;18.042;2023-07-13T04:37:26;100136.00;;;16.44;100.00
25658;BME280;13517;59.320;18.042;2023-07-13T04:39:52;100102.38;;;16.26;100.00
25658;BME280;13517;59.320;18.042;2023-07-13T04:42:17;100119.56;;;16.26;100.00
25658;BME280;13517;59.320;18.042;2023-07-13T04:44:51;100137.16;;;16.42;100.00
25658;BME280;13517;59.320;18.042;2023-07-13T04:47:20;100116.41;;;16.31;100.00
25658;BME280;13517;59.320;18.042;2023-07-13T04:49:45;100111.75;;;16.41;100.00
25658;BME280;13517;59.320;18.042;2023-07-13T04:52:11;100095.72;;;16.38;100.00
25658;BME280;13517;59.320;18.042;2023-07-13T04:54:37;100076.25;;;16.33;100.00
25658;BME280;13517;59.320;18.042;2023-07-13T04:57:03;100118.03;;;16.52;100.00
25658;BME280;13517;59.320;18.042;2023-07-13T04:59:32;100096.75;;;16.37;100.00
25658;BME280;13517;59.320;18.042;2023-07-13T05:01:57;100143.34;;;16.62;100.00
25658;BME280;13517;59.320;18.042;2023-07-13T05:04:23;100138.56;;;16.64;100.00
25658;BME280;13517;59.320;18.042;2023-07-13T05:06:48;100147.16;;;16.69;100.00
25658;BME280;13517;59.320;18.042;2023-07-13T05:09:13;100127.44;;;16.57;100.00
25658;BME280;13517;59.320;18.042;2023-07-13T05:11:39;100144.50;;;16.78;100.00
25658;BME280;13517;59.320;18.042;2023-07-13T05:14:04;100136.34;;;16.78;100.00
25658;BME280;13517;59.320;18.042;2023-07-13T05:16:30;100145.69;;;16.93;100.00
25658;BME280;13517;59.320;18.042;2023-07-13T05:18:57;100139.41;;;16.93;100.00
25658;BME280;13517;59.320;18.042;2023-07-13T05:21:22;100112.13;;;16.74;100.00
25658;BME280;13517;59.320;18.042;2023-07-13T05:23:47;100165.28;;;17.07;100.00
25658;BME280;13517;59.320;18.042;2023-07-13T05:26:13;100145.53;;;16.95;100.00
25658;BME280;13517;59.320;18.042;2023-07-13T05:28:39;100166.84;;;17.09;100.00
25658;BME280;13517;59.320;18.042;2023-07-13T05:31:06;100107.22;;;16.78;100.00
25658;BME280;13517;59.320;18.042;2023-07-13T05:33:32;100137.72;;;17.10;100.00
25658;BME280;13517;59.320;18.042;2023-07-13T05:35:57;100099.63;;;16.90;100.00
25658;BME280;13517;59.320;18.042;2023-07-13T05:38:23;100141.78;;;16.96;100.00
25658;BME280;13517;59.320;18.042;2023-07-13T05:40:49;100136.75;;;16.83;100.00
25658;BME280;13517;59.320;18.042;2023-07-13T05:43:15;100145.31;;;16.88;100.00
25658;BME280;13517;59.320;18.042;2023-07-13T05:45:41;100159.66;;;16.90;100.00
25658;BME280;13517;59.320;18.042;2023-07-13T05:48:06;100115.44;;;16.50;100.00
25658;BME280;13517;59.320;18.042;2023-07-13T05:50:32;100161.84;;;16.86;100.00
25658;BME280;13517;59.320;18.042;2023-07-13T05:52:57;100184.25;;;17.08;100.00
25658;BME280;13517;59.320;18.042;2023-07-13T05:55:23;100156.25;;;17.06;100.00
25658;BME280;13517;59.320;18.042;2023-07-13T05:57:48;100114.91;;;16.83;100.00
25658;BME280;13517;59.320;18.042;2023-07-13T06:00:14;100158.91;;;17.16;100.00
25658;BME280;13517;59.320;18.042;2023-07-13T06:02:40;100152.91;;;17.12;100.00
25658;BME280;13517;59.320;18.042;2023-07-13T06:05:05;100163.09;;;17.10;100.00
25658;BME280;13517;59.320;18.042;2023-07-13T06:07:31;100138.84;;;16.89;100.00
25658;BME280;13517;59.320;18.042;2023-07-13T06:09:56;100161.91;;;16.95;100.00
25658;BME280;13517;59.320;18.042;2023-07-13T06:12:22;100131.00;;;16.58;100.00
25658;BME280;13517;59.320;18.042;2023-07-13T06:14:48;100132.53;;;16.42;100.00
25658;BME280;13517;59.320;18.042;2023-07-13T06:17:13;100117.06;;;16.15;100.00
25658;BME280;13517;59.320;18.042;2023-07-13T06:19:38;100157.69;;;16.36;100.00
25658;BME280;13517;59.320;18.042;2023-07-13T06:22:04;100174.00;;;16.46;100.00
25658;BME280;13517;59.320;18.042;2023-07-13T06:24:30;100154.88;;;16.28;100.00
25658;BME280;13517;59.320;18.042;2023-07-13T06:26:55;100181.53;;;16.34;100.00
25658;BME280;13517;59.320;18.042;2023-07-13T06:29:20;100134.19;;;15.97;100.00
25658;BME280;13517;59.320;18.042;2023-07-13T06:31:46;100122.03;;;15.91;100.00
25658;BME280;13517;59.320;18.042;2023-07-13T06:34:11;100151.53;;;16.06;100.00
25658;BME280;13517;59.320;18.042;2023-07-13T06:36:37;100117.72;;;15.89;100.00
25658;BME280;13517;59.320;18.042;2023-07-13T06:39:04;100178.69;;;16.26;100.00
25658;BME280;13517;59.320;18.042;2023-07-13T06:41:30;100146.28;;;16.23;100.00
25658;BME280;13517;59.320;18.042;2023-07-13T06:43:56;100186.28;;;16.60;100.00
25658;BME280;13517;59.320;18.042;2023-07-13T06:46:22;100159.91;;;16.51;100.00
25658;BME280;13517;59.320;18.042;2023-07-13T06:48:47;100163.06;;;16.74;100.00
25658;BME280;13517;59.320;18.042;2023-07-13T06:51:13;100173.13;;;16.73;100.00
25658;BME280;13517;59.320;18.042;2023-07-13T06:53:39;100174.94;;;16.55;100.00
25658;BME280;13517;59.320;18.042;2023-07-13T06:56:04;100179.53;;;16.54;100.00
25658;BME280;13517;59.320;18.042;2023-07-13T06:58:30;100132.97;;;16.19;100.00
25658;BME280;13517;59.320;18.042;2023-07-13T07:00:56;100194.09;;;16.45;100.00
25658;BME280;13517;59.320;18.042;2023-07-13T07:03:21;100128.31;;;16.02;100.00
25658;BME280;13517;59.320;18.042;2023-07-13T07:05:47;100147.19;;;16.13;100.00
25658;BME280;13517;59.320;18.042;2023-07-13T07:08:13;100172.63;;;16.32;100.00
25658;BME280;13517;59.320;18.042;2023-07-13T07:10:38;100194.66;;;16.48;100.00
25658;BME280;13517;59.320;18.042;2023-07-13T07:13:04;100204.34;;;16.61;100.00
25658;BME280;13517;59.320;18.042;2023-07-13T07:15:29;100208.59;;;16.73;100.00
25658;BME280;13517;59.320;18.042;2023-07-13T07:17:55;100150.00;;;16.50;100.00
25658;BME280;13517;59.320;18.042;2023-07-13T07:20:20;100165.00;;;16.64;100.00
25658;BME280;13517;59.320;18.042;2023-07-13T07:22:47;100199.31;;;16.84;100.00
25658;BME280;13517;59.320;18.042;2023-07-13T07:25:12;100202.38;;;16.99;100.00
25658;BME280;13517;59.320;18.042;2023-07-13T07:27:38;100169.16;;;16.86;100.00
25658;BME280;13517;59.320;18.042;2023-07-13T07:30:04;100204.28;;;17.17;100.00
25658;BME280;13517;59.320;18.042;2023-07-13T07:32:30;100209.75;;;17.17;100.00
25658;BME280;13517;59.320;18.042;2023-07-13T07:34:57;100183.25;;;16.99;100.00
25658;BME280;13517;59.320;18.042;2023-07-13T07:37:23;100203.81;;;17.04;100.00
25658;BME280;13517;59.320;18.042;2023-07-13T07:39:48;100170.50;;;16.82;100.00
25658;BME280;13517;59.320;18.042;2023-07-13T07:42:14;100154.03;;;16.73;100.00
25658;BME280;13517;59.320;18.042;2023-07-13T07:44:40;100190.06;;;16.95;100.00
25658;BME280;13517;59.320;18.042;2023-07-13T07:47:06;100147.97;;;16.80;100.00
25658;BME280;13517;59.320;18.042;2023-07-13T07:49:32;100191.97;;;17.13;100.00
25658;BME280;13517;59.320;18.042;2023-07-13T07:51:57;100189.84;;;17.25;100.00
25658;BME280;13517;59.320;18.042;2023-07-13T07:54:22;100198.19;;;17.41;100.00
25658;BME280;13517;59.320;18.042;2023-07-13T07:56:48;100199.66;;;17.54;100.00
25658;BME280;13517;59.320;18.042;2023-07-13T07:59:13;100191.31;;;17.55;100.00
25658;BME280;13517;59.320;18.042;2023-07-13T08:01:39;100181.75;;;17.33;100.00
25658;BME280;13517;59.320;18.042;2023-07-13T08:04:04;100194.59;;;17.41;100.00
25658;BME280;13517;59.320;18.042;2023-07-13T08:06:32;100182.31;;;17.37;100.00
25658;BME280;13517;59.320;18.042;2023-07-13T08:08:59;100192.66;;;17.51;100.00
25658;BME280;13517;59.320;18.042;2023-07-13T08:11:25;100161.53;;;17.44;100.00
25658;BME280;13517;59.320;18.042;2023-07-13T08:13:50;100168.81;;;17.62;100.00
25658;BME280;13517;59.320;18.042;2023-07-13T08:16:16;100219.47;;;18.01;100.00
25658;BME280;13517;59.320;18.042;2023-07-13T08:18:41;100199.06;;;17.87;100.00
25658;BME280;13517;59.320;18.042;2023-07-13T08:21:08;100220.72;;;18.06;100.00
25658;BME280;13517;59.320;18.042;2023-07-13T08:23:34;100218.69;;;18.08;99.61
25658;BME280;13517;59.320;18.042;2023-07-13T08:26:00;100216.84;;;18.17;98.45
25658;BME280;13517;59.320;18.042;2023-07-13T08:28:27;100226.59;;;18.20;97.59
25658;BME280;13517;59.320;18.042;2023-07-13T08:30:53;100202.50;;;18.15;97.53
25658;BME280;13517;59.320;18.042;2023-07-13T08:33:19;100202.97;;;18.10;97.35
25658;BME280;13517;59.320;18.042;2023-07-13T08:35:46;100236.94;;;18.34;96.95
25658;BME280;13517;59.320;18.042;2023-07-13T08:38:12;100216.13;;;18.07;93.56
25658;BME280;13517;59.320;18.042;2023-07-13T08:40:39;100241.09;;;18.12;93.32
25658;BME280;13517;59.320;18.042;2023-07-13T08:43:04;100249.53;;;18.27;92.86
25658;BME280;13517;59.320;18.042;2023-07-13T08:45:43;100247.53;;;18.29;91.97
25658;BME280;13517;59.320;18.042;2023-07-13T08:48:32;100244.41;;;18.24;91.82
25658;BME280;13517;59.320;18.042;2023-07-13T08:53:40;100246.50;;;18.30;91.54
25658;BME280;13517;59.320;18.042;2023-07-13T08:56:17;100248.47;;;18.46;88.80
25658;BME280;13517;59.320;18.042;2023-07-13T08:58:45;100234.56;;;18.40;88.76
25658;BME280;13517;59.320;18.042;2023-07-13T09:04:11;100250.00;;;18.49;86.87
25658;BME280;13517;59.320;18.042;2023-07-13T09:06:55;100229.00;;;18.58;87.18
25658;BME280;13517;59.320;18.042;2023-07-13T09:09:58;100252.91;;;18.99;85.40
25658;BME280;13517;59.320;18.042;2023-07-13T09:17:49;100253.91;;;19.57;81.33
25658;BME280;13517;59.320;18.042;2023-07-13T09:20:34;100219.66;;;19.28;78.05
25658;BME280;13517;59.320;18.042;2023-07-13T09:23:04;100239.03;;;19.35;79.05
25658;BME280;13517;59.320;18.042;2023-07-13T09:25:34;100256.81;;;19.48;79.54
25658;BME280;13517;59.320;18.042;2023-07-13T09:28:13;100243.81;;;19.50;79.11
25658;BME280;13517;59.320;18.042;2023-07-13T09:33:12;100220.03;;;19.75;77.86
25658;BME280;13517;59.320;18.042;2023-07-13T09:35:39;100270.56;;;20.06;75.74
25658;BME280;13517;59.320;18.042;2023-07-13T09:38:26;100264.03;;;19.98;73.02
25658;BME280;13517;59.320;18.042;2023-07-13T09:43:34;100243.81;;;20.16;74.53
25658;BME280;13517;59.320;18.042;2023-07-13T09:46:00;100258.38;;;20.17;75.07
25658;BME280;13517;59.320;18.042;2023-07-13T09:48:34;100260.03;;;20.34;70.34
25658;BME280;13517;59.320;18.042;2023-07-13T09:51:13;100220.00;;;20.17;71.02
25658;BME280;13517;59.320;18.042;2023-07-13T09:53:41;100254.19;;;20.37;71.79
25658;BME280;13517;59.320;18.042;2023-07-13T09:56:19;100218.41;;;20.22;71.47
25658;BME280;13517;59.320;18.042;2023-07-13T09:58:45;100238.56;;;20.46;71.10
25658;BME280;13517;59.320;18.042;2023-07-13T10:01:11;100209.38;;;20.53;70.52
25658;BME280;13517;59.320;18.042;2023-07-13T10:03:37;100236.78;;;20.62;69.22
25658;BME280;13517;59.320;18.042;2023-07-13T10:06:16;100244.31;;;20.68;68.88
25658;BME280;13517;59.320;18.042;2023-07-13T10:08:45;100252.19;;;20.71;69.62
25658;BME280;13517;59.320;18.042;2023-07-13T10:13:44;100237.72;;;20.46;69.65
25658;BME280;13517;59.320;18.042;2023-07-13T10:16:11;100255.50;;;20.66;69.10
25658;BME280;13517;59.320;18.042;2023-07-13T10:18:48;100225.84;;;20.53;67.56
25658;BME280;13517;59.320;18.042;2023-07-13T10:21:21;100256.66;;;20.72;68.07
25658;BME280;13517;59.320;18.042;2023-07-13T10:23:56;100246.06;;;20.61;68.03
25658;BME280;13517;59.320;18.042;2023-07-13T10:26:27;100239.22;;;20.57;68.20
25658;BME280;13517;59.320;18.042;2023-07-13T10:28:57;100212.38;;;20.35;67.19
25658;BME280;13517;59.320;18.042;2023-07-13T10:31:25;100227.13;;;20.34;66.96
25658;BME280;13517;59.320;18.042;2023-07-13T10:33:51;100239.94;;;20.50;67.41
25658;BME280;13517;59.320;18.042;2023-07-13T10:38:55;100256.28;;;20.84;66.64
25658;BME280;13517;59.320;18.042;2023-07-13T10:41:24;100197.25;;;20.48;65.61
25658;BME280;13517;59.320;18.042;2023-07-13T10:43:52;100253.50;;;20.92;65.04
25658;BME280;13517;59.320;18.042;2023-07-13T10:46:22;100198.56;;;20.60;63.85
25658;BME280;13517;59.320;18.042;2023-07-13T10:48:52;100241.84;;;20.81;64.69
25658;BME280;13517;59.320;18.042;2023-07-13T10:51:20;100222.56;;;20.66;64.55
25658;BME280;13517;59.320;18.042;2023-07-13T10:53:47;100196.75;;;20.44;64.77
25658;BME280;13517;59.320;18.042;2023-07-13T10:56:22;100255.00;;;20.63;65.06
25658;BME280;13517;59.320;18.042;2023-07-13T10:59:46;100245.31;;;20.27;66.40
25658;BME280;13517;59.320;18.042;2023-07-13T11:04:21;100229.38;;;20.31;66.41
25658;BME280;13517;59.320;18.042;2023-07-13T11:06:52;100230.97;;;20.17;65.60
25658;BME280;13517;59.320;18.042;2023-07-13T11:11:43;100208.50;;;20.21;64.66
25658;BME280;13517;59.320;18.042;2023-07-13T11:14:35;100261.19;;;20.57;62.94
25658;BME280;13517;59.320;18.042;2023-07-13T11:18:10;100269.38;;;20.65;61.90
25658;BME280;13517;59.320;18.042;2023-07-13T11:22:52;100256.03;;;20.53;63.01
25658;BME280;13517;59.320;18.042;2023-07-13T11:27:50;100262.72;;;20.51;64.10
25658;BME280;13517;59.320;18.042;2023-07-13T11:30:31;100263.09;;;20.48;63.08
25658;BME280;13517;59.320;18.042;2023-07-13T11:35:37;100243.38;;;20.44;64.28
25658;BME280;13517;59.320;18.042;2023-07-13T11:38:14;100261.69;;;20.60;63.05
25658;BME280;13517;59.320;18.042;2023-07-13T11:40:42;100252.56;;;20.60;63.11
25658;BME280;13517;59.320;18.042;2023-07-13T11:43:13;100261.31;;;20.63;63.47
25658;BME280;13517;59.320;18.042;2023-07-13T11:45:39;100223.09;;;20.53;63.61
25658;BME280;13517;59.320;18.042;2023-07-13T11:48:04;100231.97;;;20.72;63.78
25658;BME280;13517;59.320;18.042;2023-07-13T11:50:30;100261.69;;;21.00;63.43
25658;BME280;13517;59.320;18.042;2023-07-13T11:52:58;100269.50;;;21.12;62.99
25658;BME280;13517;59.320;18.042;2023-07-13T11:55:24;100252.69;;;21.15;62.83
25658;BME280;13517;59.320;18.042;2023-07-13T11:57:59;100254.28;;;21.09;62.55
25658;BME280;13517;59.320;18.042;2023-07-13T12:00:29;100252.16;;;20.88;62.83
25658;BME280;13517;59.320;18.042;2023-07-13T12:02:59;100233.28;;;20.76;63.50
25658;BME280;13517;59.320;18.042;2023-07-13T12:05:26;100245.28;;;20.92;63.23
25658;BME280;13517;59.320;18.042;2023-07-13T12:07:52;100256.53;;;21.05;62.77
25658;BME280;13517;59.320;18.042;2023-07-13T12:13:02;100242.63;;;21.30;62.26
25658;BME280;13517;59.320;18.042;2023-07-13T12:15:39;100247.97;;;21.55;62.38
25658;BME280;13517;59.320;18.042;2023-07-13T12:18:18;100248.22;;;21.69;61.58
25658;BME280;13517;59.320;18.042;2023-07-13T12:20:44;100255.44;;;21.70;61.97
25658;BME280;13517;59.320;18.042;2023-07-13T12:23:24;100217.91;;;21.30;61.37
25658;BME280;13517;59.320;18.042;2023-07-13T12:25:51;100250.97;;;21.69;62.14
25658;BME280;13517;59.320;18.042;2023-07-13T12:31:00;100228.47;;;21.42;61.10
25658;BME280;13517;59.320;18.042;2023-07-13T12:33:30;100196.72;;;21.16;61.34
25658;BME280;13517;59.320;18.042;2023-07-13T12:36:00;100252.03;;;21.36;61.89
25658;BME280;13517;59.320;18.042;2023-07-13T12:38:27;100246.41;;;21.29;62.24
25658;BME280;13517;59.320;18.042;2023-07-13T12:40:53;100206.81;;;21.23;61.99
25658;BME280;13517;59.320;18.042;2023-07-13T12:43:20;100199.59;;;21.22;61.78
25658;BME280;13517;59.320;18.042;2023-07-13T12:46:00;100246.19;;;21.39;60.59
25658;BME280;13517;59.320;18.042;2023-07-13T12:48:26;100239.78;;;21.23;61.97
25658;BME280;13517;59.320;18.042;2023-07-13T12:50:53;100251.47;;;21.17;62.13
25658;BME280;13517;59.320;18.042;2023-07-13T12:53:27;100251.16;;;21.12;62.51
25658;BME280;13517;59.320;18.042;2023-07-13T12:55:56;100253.75;;;21.14;61.42
25658;BME280;13517;59.320;18.042;2023-07-13T12:58:39;100242.06;;;21.12;59.68
25658;BME280;13517;59.320;18.042;2023-07-13T13:01:07;100246.50;;;21.44;60.21
25658;BME280;13517;59.320;18.042;2023-07-13T13:03:37;100205.69;;;21.56;58.32
25658;BME280;13517;59.320;18.042;2023-07-13T13:08:47;100238.41;;;21.89;57.24
25658;BME280;13517;59.320;18.042;2023-07-13T13:11:14;100240.41;;;21.96;56.62
25658;BME280;13517;59.320;18.042;2023-07-13T13:13:42;100223.63;;;21.90;56.12
25658;BME280;13517;59.320;18.042;2023-07-13T13:16:55;100236.06;;;22.01;55.38
25658;BME280;13517;59.320;18.042;2023-07-13T13:19:14;100234.28;;;22.24;55.11
25658;BME280;13517;59.320;18.042;2023-07-13T13:21:41;100199.84;;;22.28;55.14